Time;durP1;ratioP1;P1;durP2;ratioP2;P2;SDS_P1;SDS_P2;PMS_P1;PMS_P2;Temp;Humidity;BMP_temperature;BMP_pressure;BME280_temperature;BME280_humidity;BME280_pressure;Samples;Min_cycle;Max_cycle;Signal;HPM_P1;HPM_P2
2024/03/19 00:00:50;;;;;;;1.63;1.53;;;4.40;99.90;;;;;;5086596;28;20298;-73
2024/03/19 00:03:17;;;;;;;2.00;1.60;;;4.30;99.90;;;;;;5086480;28;20297;-72
2024/03/19 00:05:44;;;;;;;1.70;1.60;;;4.30;99.90;;;;;;5087155;28;20213;-72
2024/03/19 00:08:12;;;;;;;1.90;1.80;;;4.30;99.90;;;;;;5086770;28;20203;-72
2024/03/19 00:10:39;;;;;;;2.93;1.67;;;4.30;99.90;;;;;;5086310;28;20618;-73
2024/03/19 00:13:06;;;;;;;1.50;1.40;;;4.30;99.90;;;;;;5086518;28;20301;-72
2024/03/19 00:15:33;;;;;;;2.43;1.73;;;4.30;99.90;;;;;;5086531;28;20198;-73
2024/03/19 00:17:59;;;;;;;1.50;1.50;;;4.30;99.90;;;;;;5086865;28;20210;-73
2024/03/19 00:20:26;;;;;;;1.67;1.53;;;4.30;99.90;;;;;;5086420;28;20305;-73
2024/03/19 00:22:53;;;;;;;1.87;1.77;;;4.30;99.90;;;;;;5086684;28;20210;-73
2024/03/19 00:25:24;;;;;;;1.73;1.63;;;4.30;99.90;;;;;;5086147;28;20285;-72
2024/03/19 00:27:51;;;;;;;1.77;1.50;;;4.30;99.90;;;;;;5086372;28;20214;-72
2024/03/19 00:30:18;;;;;;;5.77;1.90;;;4.20;99.90;;;;;;5086368;28;20213;-72
2024/03/19 00:32:45;;;;;;;1.63;1.53;;;4.20;99.90;;;;;;5085551;28;20759;-72
2024/03/19 00:35:12;;;;;;;1.77;1.67;;;4.20;99.90;;;;;;5086380;28;20199;-72
2024/03/19 00:37:42;;;;;;;1.53;1.43;;;4.20;99.90;;;;;;5086445;28;20313;-72
2024/03/19 00:40:10;;;;;;;2.90;1.80;;;4.20;99.90;;;;;;5085991;28;20223;-72
2024/03/19 00:42:39;;;;;;;2.03;1.83;;;4.20;99.90;;;;;;5086597;28;20210;-72
2024/03/19 00:45:07;;;;;;;1.67;1.57;;;4.20;99.90;;;;;;5086585;28;20222;-72
2024/03/19 00:47:34;;;;;;;1.50;1.40;;;4.10;99.90;;;;;;5086413;28;20295;-72
2024/03/19 00:50:01;;;;;;;1.90;1.80;;;4.10;99.90;;;;;;5075608;28;20203;-72
2024/03/19 00:52:28;;;;;;;2.10;1.60;;;4.10;99.90;;;;;;5066473;28;20290;-72
2024/03/19 00:54:55;;;;;;;2.80;1.83;;;4.00;99.90;;;;;;5068786;28;20203;-72
2024/03/19 00:57:22;;;;;;;1.70;1.60;;;4.10;99.90;;;;;;5086154;28;20427;-72
2024/03/19 00:59:50;;;;;;;1.80;1.70;;;4.00;99.90;;;;;;5086660;28;20294;-72
2024/03/19 01:02:17;;;;;;;1.60;1.50;;;4.00;99.90;;;;;;5085651;28;20199;-72
2024/03/19 01:04:44;;;;;;;2.13;1.93;;;3.90;99.90;;;;;;5086350;28;20203;-72
2024/03/19 01:07:11;;;;;;;2.07;1.97;;;3.90;99.90;;;;;;5086399;28;20241;-72
2024/03/19 01:09:39;;;;;;;2.63;2.10;;;3.80;99.90;;;;;;5085659;28;20199;-72
2024/03/19 01:12:09;;;;;;;1.83;1.73;;;3.90;99.90;;;;;;5086270;28;20214;-72
2024/03/19 01:14:37;;;;;;;1.97;1.87;;;3.80;99.90;;;;;;5086040;28;20581;-72
2024/03/19 01:17:05;;;;;;;2.00;1.90;;;3.90;99.90;;;;;;5085855;28;20596;-72
2024/03/19 01:19:33;;;;;;;2.30;2.00;;;3.80;99.90;;;;;;5086068;28;20202;-72
2024/03/19 01:21:58;;;;;;;1.90;1.80;;;3.80;99.90;;;;;;5086205;28;20206;-72
2024/03/19 01:24:25;;;;;;;2.43;2.23;;;3.80;99.90;;;;;;5084002;28;20191;-72
2024/03/19 01:26:52;;;;;;;2.10;2.00;;;3.80;99.90;;;;;;5080688;28;20624;-72
2024/03/19 01:29:19;;;;;;;1.90;1.80;;;3.80;99.90;;;;;;5065981;28;20204;-72
2024/03/19 01:31:46;;;;;;;3.23;2.40;;;3.90;99.90;;;;;;5066300;28;20301;-72
2024/03/19 01:34:14;;;;;;;2.10;2.00;;;3.90;99.90;;;;;;5078815;28;20209;-72
2024/03/19 01:36:41;;;;;;;2.10;2.00;;;3.90;99.90;;;;;;5086092;28;20574;-72
2024/03/19 01:39:09;;;;;;;2.67;1.90;;;3.90;99.90;;;;;;5084725;28;20789;-72
2024/03/19 01:41:36;;;;;;;2.20;2.10;;;3.80;99.90;;;;;;5065717;28;20231;-72
2024/03/19 01:44:03;;;;;;;2.47;2.10;;;3.80;99.90;;;;;;5067835;28;20611;-72
2024/03/19 01:46:30;;;;;;;1.80;1.70;;;3.80;99.90;;;;;;5074958;28;20229;-72
2024/03/19 01:48:59;;;;;;;2.10;2.00;;;3.80;99.90;;;;;;5069073;28;20204;-72
2024/03/19 01:51:27;;;;;;;2.13;1.97;;;3.80;99.90;;;;;;5069564;28;20231;-72
2024/03/19 01:53:56;;;;;;;2.47;2.33;;;3.80;99.90;;;;;;5070810;28;20222;-72
2024/03/19 01:56:26;;;;;;;2.30;2.17;;;3.80;99.90;;;;;;5088896;28;20230;-72
2024/03/19 01:58:53;;;;;;;1.97;1.77;;;3.70;99.90;;;;;;5089725;28;20313;-71
2024/03/19 02:01:21;;;;;;;2.70;2.00;;;3.70;99.90;;;;;;5089148;28;20642;-73
2024/03/19 02:03:49;;;;;;;2.17;1.97;;;3.70;99.90;;;;;;5089724;28;20207;-73
2024/03/19 02:06:17;;;;;;;3.73;2.30;;;3.70;99.90;;;;;;5088023;28;20305;-74
2024/03/19 02:08:59;;;;;;;2.40;2.20;;;3.70;99.90;;;;;;5088157;28;20207;-72
2024/03/19 02:11:26;;;;;;;2.40;2.20;;;3.60;99.90;;;;;;5086608;28;20282;-72
2024/03/19 02:13:54;;;;;;;2.70;2.50;;;3.60;99.90;;;;;;5087414;28;20252;-72
2024/03/19 02:16:21;;;;;;;2.10;2.00;;;3.60;99.90;;;;;;5088091;28;20238;-72
2024/03/19 02:18:55;;;;;;;2.40;2.30;;;3.60;99.90;;;;;;5087665;28;20648;-71
2024/03/19 02:21:22;;;;;;;4.07;2.43;;;3.50;99.90;;;;;;5087677;28;20418;-72
2024/03/19 02:23:51;;;;;;;2.77;2.30;;;3.50;99.90;;;;;;5087415;28;20677;-73
2024/03/19 02:26:18;;;;;;;2.13;2.03;;;3.50;99.90;;;;;;5087417;28;20238;-73
2024/03/19 02:28:44;;;;;;;2.30;2.20;;;3.50;99.90;;;;;;5087552;28;20310;-72
2024/03/19 02:31:11;;;;;;;2.60;2.40;;;3.50;99.90;;;;;;5087698;28;20213;-73
2024/03/19 02:33:38;;;;;;;2.50;2.30;;;3.50;99.90;;;;;;5087759;28;20378;-72
2024/03/19 02:36:06;;;;;;;2.73;2.50;;;3.50;99.90;;;;;;5087503;28;20232;-73
2024/03/19 02:38:32;;;;;;;2.77;2.57;;;3.50;99.90;;;;;;5087417;28;20658;-73
2024/03/19 02:41:01;;;;;;;3.57;2.60;;;3.50;99.90;;;;;;5086685;28;20899;-73
2024/03/19 02:43:28;;;;;;;2.67;2.47;;;3.40;99.90;;;;;;5087161;28;20297;-73
2024/03/19 02:45:55;;;;;;;2.50;2.40;;;3.40;99.90;;;;;;5087840;28;20210;-72
2024/03/19 02:48:22;;;;;;;2.33;2.20;;;3.40;99.90;;;;;;5086880;28;20233;-73
2024/03/19 02:50:49;;;;;;;2.87;2.33;;;3.40;99.90;;;;;;5087450;28;20199;-72
2024/03/19 02:53:19;;;;;;;2.57;2.37;;;3.40;99.90;;;;;;5087131;28;20207;-72
2024/03/19 02:55:48;;;;;;;3.07;2.87;;;3.40;99.90;;;;;;5086212;28;20458;-72
2024/03/19 02:58:16;;;;;;;3.60;2.73;;;3.40;99.90;;;;;;5069859;28;20235;-72
2024/03/19 03:00:43;;;;;;;2.67;2.47;;;3.30;99.90;;;;;;5068120;28;20218;-72
2024/03/19 03:03:10;;;;;;;3.10;2.50;;;3.30;99.90;;;;;;5067873;28;20586;-72
2024/03/19 03:05:37;;;;;;;2.43;2.30;;;3.30;99.90;;;;;;5068140;28;20253;-72
2024/03/19 03:08:05;;;;;;;2.50;2.30;;;3.30;99.90;;;;;;5067877;28;20306;-72
2024/03/19 03:10:32;;;;;;;2.70;2.47;;;3.30;99.90;;;;;;5086810;28;20260;-72
2024/03/19 03:12:59;;;;;;;4.27;2.80;;;3.20;99.90;;;;;;5088077;28;20580;-72
2024/03/19 03:15:28;;;;;;;2.90;2.70;;;3.20;99.90;;;;;;5087331;28;20329;-72
2024/03/19 03:17:56;;;;;;;2.73;2.53;;;3.20;99.90;;;;;;5082869;28;20226;-73
2024/03/19 03:20:23;;;;;;;2.60;2.40;;;3.20;99.90;;;;;;5086903;28;20677;-73
2024/03/19 03:22:50;;;;;;;2.87;2.60;;;3.10;99.90;;;;;;5087733;28;20610;-73
2024/03/19 03:25:17;;;;;;;2.67;2.43;;;3.10;99.90;;;;;;5086729;28;20657;-73
2024/03/19 03:27:44;;;;;;;2.60;2.50;;;3.10;99.90;;;;;;5082818;28;20295;-72
2024/03/19 03:30:13;;;;;;;2.90;2.63;;;3.00;99.90;;;;;;5065682;28;20550;-72
2024/03/19 03:32:42;;;;;;;2.63;2.43;;;3.00;99.90;;;;;;5065577;28;20200;-73
2024/03/19 03:35:09;;;;;;;2.63;2.33;;;3.00;99.90;;;;;;5065704;28;20238;-73
2024/03/19 03:37:37;;;;;;;2.70;2.50;;;3.00;99.90;;;;;;5067713;28;20622;-73
2024/03/19 03:40:09;;;;;;;3.67;2.70;;;3.00;99.90;;;;;;5085474;28;20225;-73
2024/03/19 03:42:36;;;;;;;3.00;2.80;;;3.00;99.90;;;;;;5086117;28;20752;-73
2024/03/19 03:45:03;;;;;;;2.83;2.63;;;3.10;99.90;;;;;;5085874;28;20558;-73
2024/03/19 03:47:30;;;;;;;2.43;2.33;;;3.10;99.90;;;;;;5085124;28;20223;-72
2024/03/19 03:49:58;;;;;;;4.07;2.50;;;3.00;99.90;;;;;;5068904;28;20211;-73
2024/03/19 03:52:29;;;;;;;2.73;2.50;;;3.00;99.90;;;;;;5065147;28;20282;-73
2024/03/19 03:54:56;;;;;;;2.67;2.30;;;3.10;99.90;;;;;;5070546;28;20205;-72
2024/03/19 03:57:23;;;;;;;3.33;3.03;;;3.10;99.90;;;;;;5084276;28;20322;-73
2024/03/19 03:59:50;;;;;;;2.90;2.70;;;3.10;99.90;;;;;;5085890;28;20294;-73
2024/03/19 04:02:16;;;;;;;2.90;2.70;;;3.10;99.90;;;;;;5086292;28;20289;-73
2024/03/19 04:04:43;;;;;;;3.40;3.03;;;3.10;99.90;;;;;;5086439;28;20213;-72
2024/03/19 04:07:12;;;;;;;3.00;2.80;;;3.10;99.90;;;;;;5085880;28;20290;-73
2024/03/19 04:09:38;;;;;;;4.03;2.80;;;3.10;99.90;;;;;;5086166;28;20321;-73
2024/03/19 04:12:06;;;;;;;3.53;2.90;;;3.10;99.90;;;;;;5087547;28;20233;-73
2024/03/19 04:14:33;;;;;;;2.97;2.67;;;3.00;99.90;;;;;;5086820;28;20326;-73
2024/03/19 04:17:00;;;;;;;2.90;2.70;;;3.00;99.90;;;;;;5087143;28;20277;-73
2024/03/19 04:19:27;;;;;;;3.23;3.00;;;3.00;99.90;;;;;;5086727;28;20732;-73
2024/03/19 04:21:54;;;;;;;3.00;2.80;;;3.00;99.90;;;;;;5086851;28;20690;-73
2024/03/19 04:24:22;;;;;;;3.67;3.23;;;3.00;99.90;;;;;;5086551;28;20293;-73
2024/03/19 04:26:49;;;;;;;3.43;2.80;;;3.00;99.90;;;;;;5082024;28;20208;-72
2024/03/19 04:29:17;;;;;;;3.23;3.03;;;3.00;99.90;;;;;;5066456;28;20247;-73
2024/03/19 04:31:43;;;;;;;3.27;2.90;;;2.90;99.90;;;;;;5067193;28;20210;-73
2024/03/19 04:34:11;;;;;;;3.63;3.17;;;3.00;99.90;;;;;;5073871;28;20294;-73
2024/03/19 04:36:38;;;;;;;3.97;3.33;;;2.90;99.90;;;;;;5086835;28;20203;-73
2024/03/19 04:39:10;;;;;;;3.20;3.00;;;2.90;99.90;;;;;;5086878;28;20266;-73
2024/03/19 04:41:39;;;;;;;3.60;3.30;;;2.80;99.90;;;;;;5086809;28;20648;-73
2024/03/19 04:44:06;;;;;;;3.80;3.50;;;2.80;99.90;;;;;;5087060;28;20571;-73
2024/03/19 04:46:33;;;;;;;3.53;3.33;;;2.80;99.90;;;;;;5086807;28;20209;-73
2024/03/19 04:49:00;;;;;;;3.90;3.60;;;2.80;99.90;;;;;;5086762;28;20302;-73
2024/03/19 04:51:28;;;;;;;3.73;3.43;;;2.80;99.90;;;;;;5086716;28;20297;-73
2024/03/19 04:53:56;;;;;;;4.07;3.77;;;2.80;99.90;;;;;;5087158;28;20238;-73
2024/03/19 04:56:24;;;;;;;4.77;3.80;;;2.70;99.90;;;;;;5086729;28;20207;-73
2024/03/19 04:58:52;;;;;;;4.10;3.80;;;2.70;99.90;;;;;;5086381;28;20726;-73
2024/03/19 05:01:19;;;;;;;5.23;3.60;;;2.70;99.90;;;;;;5087100;28;20297;-73
2024/03/19 05:03:46;;;;;;;3.90;3.60;;;2.70;99.90;;;;;;5086757;28;20294;-73
2024/03/19 05:06:13;;;;;;;4.23;3.93;;;2.70;99.90;;;;;;5086681;28;20199;-73
2024/03/19 05:08:41;;;;;;;4.13;3.73;;;2.70;99.90;;;;;;5086365;28;20206;-73
2024/03/19 05:11:08;;;;;;;4.30;4.00;;;2.70;99.90;;;;;;5086343;28;20301;-73
2024/03/19 05:13:35;;;;;;;5.03;4.17;;;2.70;99.90;;;;;;5086476;28;20246;-73
2024/03/19 05:16:03;;;;;;;4.50;4.10;;;2.70;99.90;;;;;;5086632;28;20195;-73
2024/03/19 05:18:30;;;;;;;4.20;3.90;;;2.60;99.90;;;;;;5087717;28;20256;-72
2024/03/19 05:20:57;;;;;;;7.47;4.20;;;2.60;99.90;;;;;;5090452;28;20264;-72
2024/03/19 05:23:24;;;;;;;4.60;4.20;;;2.60;99.90;;;;;;5090234;28;20578;-73
2024/03/19 05:25:51;;;;;;;4.57;4.10;;;2.60;99.90;;;;;;5089911;28;20657;-73
2024/03/19 05:28:18;;;;;;;6.43;4.67;;;2.60;99.90;;;;;;5090361;28;20218;-73
2024/03/19 05:30:45;;;;;;;5.23;4.27;;;2.60;99.90;;;;;;5089964;28;20221;-72
2024/03/19 05:33:14;;;;;;;4.83;4.43;;;2.60;99.90;;;;;;5090237;28;20632;-72
2024/03/19 05:35:41;;;;;;;5.23;4.83;;;2.60;99.90;;;;;;5090341;28;20199;-73
2024/03/19 05:38:09;;;;;;;4.80;4.33;;;2.60;99.90;;;;;;5089976;28;20329;-72
2024/03/19 05:40:37;;;;;;;4.50;4.20;;;2.60;99.90;;;;;;5089847;28;20234;-73
2024/03/19 05:43:06;;;;;;;5.53;4.37;;;2.70;99.90;;;;;;5090045;28;20203;-72
2024/03/19 05:45:33;;;;;;;4.60;4.20;;;2.60;99.90;;;;;;5089700;28;20203;-73
2024/03/19 05:48:02;;;;;;;5.33;4.60;;;2.60;99.90;;;;;;5090211;28;20225;-72
2024/03/19 05:50:30;;;;;;;6.10;4.30;;;2.60;99.90;;;;;;5089752;28;20213;-72
2024/03/19 05:52:57;;;;;;;4.93;4.43;;;2.60;99.90;;;;;;5090133;28;20606;-73
2024/03/19 05:55:24;;;;;;;4.93;4.43;;;2.60;99.90;;;;;;5089304;28;20207;-73
2024/03/19 05:57:51;;;;;;;5.47;4.37;;;2.60;99.90;;;;;;5086558;28;20241;-73
2024/03/19 06:00:21;;;;;;;4.60;4.07;;;2.60;99.90;;;;;;5088869;28;20294;-73
2024/03/19 06:02:48;;;;;;;5.00;4.50;;;2.70;99.90;;;;;;5089675;28;20196;-73
2024/03/19 06:05:15;;;;;;;4.83;4.43;;;2.70;99.90;;;;;;5089377;28;20657;-73
2024/03/19 06:07:43;;;;;;;4.90;4.30;;;2.70;99.90;;;;;;5089599;28;20322;-73
2024/03/19 06:10:11;;;;;;;4.97;4.20;;;2.70;99.90;;;;;;5089087;28;20206;-73
2024/03/19 06:12:38;;;;;;;4.83;4.33;;;2.70;99.90;;;;;;5089749;28;20206;-73
2024/03/19 06:15:07;;;;;;;4.17;3.77;;;2.70;99.90;;;;;;5089211;28;20309;-73
2024/03/19 06:17:34;;;;;;;4.70;4.30;;;2.70;99.90;;;;;;5089329;28;20319;-73
2024/03/19 06:20:01;;;;;;;5.30;4.80;;;2.70;99.90;;;;;;5089099;28;20592;-73
2024/03/19 06:22:28;;;;;;;3.87;3.57;;;2.70;99.90;;;;;;5089213;28;20297;-73
2024/03/19 06:24:56;;;;;;;4.63;4.33;;;2.80;99.90;;;;;;5088866;28;20297;-73
2024/03/19 06:27:23;;;;;;;6.13;4.30;;;2.80;99.90;;;;;;5088503;28;20199;-73
2024/03/19 06:29:50;;;;;;;5.43;4.30;;;2.80;99.90;;;;;;5088202;28;20357;-73
2024/03/19 06:32:18;;;;;;;5.50;4.90;;;2.80;99.90;;;;;;5088590;28;20215;-73
2024/03/19 06:34:45;;;;;;;4.37;4.00;;;2.80;99.90;;;;;;5089235;28;20657;-73
2024/03/19 06:37:12;;;;;;;4.90;4.50;;;2.90;99.90;;;;;;5089134;28;20209;-73
2024/03/19 06:39:39;;;;;;;4.57;4.17;;;2.90;99.90;;;;;;5088678;28;20333;-71
2024/03/19 06:42:07;;;;;;;4.93;4.43;;;2.90;99.90;;;;;;5089166;28;20211;-72
2024/03/19 06:44:34;;;;;;;5.30;4.80;;;3.00;99.90;;;;;;5088520;28;20293;-73
2024/03/19 06:47:01;;;;;;;5.60;5.03;;;2.90;99.90;;;;;;5089031;28;20206;-72
2024/03/19 06:49:28;;;;;;;6.90;5.83;;;3.00;99.90;;;;;;5088797;28;20209;-72
2024/03/19 06:51:55;;;;;;;6.23;5.63;;;3.00;99.90;;;;;;5089091;28;20215;-72
2024/03/19 06:54:22;;;;;;;5.70;5.20;;;3.00;99.90;;;;;;5088722;28;20293;-72
2024/03/19 06:56:49;;;;;;;6.27;4.83;;;3.10;99.90;;;;;;5088883;28;20747;-72
2024/03/19 06:59:19;;;;;;;5.73;5.23;;;3.10;99.90;;;;;;5088090;28;20659;-72
2024/03/19 07:01:47;;;;;;;6.10;5.50;;;3.20;99.90;;;;;;5088260;28;20642;-72
2024/03/19 07:04:14;;;;;;;6.30;5.70;;;3.20;99.90;;;;;;5088009;28;20203;-72
2024/03/19 07:06:41;;;;;;;7.50;5.40;;;3.20;99.90;;;;;;5088428;28;20207;-72
2024/03/19 07:09:09;;;;;;;6.33;5.73;;;3.30;99.90;;;;;;5088334;28;20210;-72
2024/03/19 07:11:36;;;;;;;7.70;6.50;;;3.30;99.90;;;;;;5088424;28;20214;-72
2024/03/19 07:14:04;;;;;;;8.97;6.30;;;3.40;99.90;;;;;;5088278;28;20321;-72
2024/03/19 07:16:33;;;;;;;7.23;6.53;;;3.40;99.90;;;;;;5088392;28;20290;-73
2024/03/19 07:19:00;;;;;;;9.53;7.00;;;3.50;99.90;;;;;;5088281;28;20269;-73
2024/03/19 07:21:27;;;;;;;8.00;7.20;;;3.60;99.90;;;;;;5088169;28;20206;-73
2024/03/19 07:23:54;;;;;;;7.37;6.67;;;3.60;99.90;;;;;;5083679;28;20760;-73
2024/03/19 07:26:21;;;;;;;7.57;6.77;;;3.70;99.90;;;;;;5087845;28;20286;-73
2024/03/19 07:28:48;;;;;;;7.37;6.63;;;3.70;99.90;;;;;;5087999;28;20209;-73
2024/03/19 07:31:15;;;;;;;8.43;7.00;;;3.80;99.90;;;;;;5088077;28;20245;-72
2024/03/19 07:33:43;;;;;;;7.60;6.70;;;3.80;99.90;;;;;;5088102;28;20287;-73
2024/03/19 07:36:11;;;;;;;7.80;6.83;;;3.90;99.90;;;;;;5087824;28;20576;-73
2024/03/19 07:38:40;;;;;;;8.20;6.83;;;4.00;99.90;;;;;;5087521;28;20713;-73
2024/03/19 07:41:07;;;;;;;8.30;7.43;;;4.00;99.90;;;;;;5087294;28;20217;-73
2024/03/19 07:43:34;;;;;;;9.73;6.90;;;4.10;99.90;;;;;;5087777;28;20526;-73
2024/03/19 07:46:01;;;;;;;9.47;6.97;;;4.20;99.90;;;;;;5087750;28;20228;-73
2024/03/19 07:48:28;;;;;;;10.17;6.73;;;4.30;99.90;;;;;;5087545;28;20210;-73
2024/03/19 07:50:57;;;;;;;8.40;7.50;;;4.30;99.90;;;;;;5087402;28;20301;-73
2024/03/19 07:53:25;;;;;;;7.97;7.17;;;4.40;99.90;;;;;;5087717;28;20203;-73
2024/03/19 07:55:52;;;;;;;12.33;7.33;;;4.50;99.90;;;;;;5087504;28;20210;-73
2024/03/19 07:58:19;;;;;;;10.27;8.43;;;4.50;99.90;;;;;;5087028;28;20716;-73
2024/03/19 08:00:46;;;;;;;8.63;7.73;;;4.60;99.90;;;;;;5087412;28;20294;-73
2024/03/19 08:03:13;;;;;;;9.03;8.13;;;4.70;99.90;;;;;;5087435;28;20218;-72
2024/03/19 08:05:40;;;;;;;8.83;7.80;;;4.70;99.90;;;;;;5086969;28;20293;-73
2024/03/19 08:08:08;;;;;;;8.57;7.77;;;4.80;99.90;;;;;;5087528;28;20218;-73
2024/03/19 08:10:35;;;;;;;8.47;7.60;;;4.90;99.90;;;;;;5086731;28;20210;-73
2024/03/19 08:13:02;;;;;;;8.47;7.57;;;5.00;99.90;;;;;;5086991;28;20764;-73
2024/03/19 08:15:30;;;;;;;8.63;7.53;;;5.00;99.90;;;;;;5086664;28;20239;-73
2024/03/19 08:17:57;;;;;;;8.33;7.47;;;5.00;99.90;;;;;;5087043;28;20290;-73
2024/03/19 08:20:23;;;;;;;8.20;7.33;;;5.10;99.90;;;;;;5085392;28;20206;-73
2024/03/19 08:22:50;;;;;;;8.27;6.93;;;5.20;99.90;;;;;;5087053;28;20203;-73
2024/03/19 08:25:19;;;;;;;9.83;7.50;;;5.20;99.90;;;;;;5086657;28;20618;-73
2024/03/19 08:27:46;;;;;;;8.43;6.77;;;5.20;99.90;;;;;;5087320;28;20210;-73
2024/03/19 08:30:14;;;;;;;9.33;7.40;;;5.30;99.90;;;;;;5086541;28;20660;-73
2024/03/19 08:32:40;;;;;;;8.70;7.33;;;5.30;99.90;;;;;;5086982;28;20211;-73
2024/03/19 08:35:10;;;;;;;7.73;7.03;;;5.50;99.90;;;;;;5087219;28;20699;-73
2024/03/19 08:37:37;;;;;;;7.37;6.60;;;5.50;99.90;;;;;;5086982;28;20203;-73
2024/03/19 08:40:05;;;;;;;7.80;7.10;;;5.60;99.90;;;;;;5086526;28;20265;-73
2024/03/19 08:42:34;;;;;;;6.93;6.40;;;5.60;99.90;;;;;;5086643;28;20206;-73
2024/03/19 08:45:01;;;;;;;7.33;6.63;;;5.50;99.90;;;;;;5086481;28;20205;-73
2024/03/19 08:47:28;;;;;;;7.97;7.10;;;5.60;99.90;;;;;;5086666;28;20242;-73
2024/03/19 08:49:55;;;;;;;8.23;7.10;;;5.60;99.90;;;;;;5086551;28;20301;-73
2024/03/19 08:52:22;;;;;;;8.03;7.23;;;5.70;99.90;;;;;;5086524;28;20293;-73
2024/03/19 08:54:49;;;;;;;7.10;6.40;;;5.80;99.90;;;;;;5089709;28;20329;-73
2024/03/19 08:57:16;;;;;;;7.27;6.63;;;5.80;99.90;;;;;;5082003;28;20203;-73
2024/03/19 08:59:46;;;;;;;7.57;6.87;;;5.90;99.90;;;;;;5070018;28;20238;-73
2024/03/19 09:02:13;;;;;;;7.37;6.63;;;6.00;99.90;;;;;;5070688;28;20286;-73
2024/03/19 09:04:40;;;;;;;7.70;7.00;;;6.00;99.90;;;;;;5070268;28;20303;-73
2024/03/19 09:07:07;;;;;;;6.77;6.17;;;6.00;99.90;;;;;;5070613;28;20668;-73
2024/03/19 09:09:34;;;;;;;7.53;6.83;;;6.20;99.90;;;;;;5070049;28;20214;-73
2024/03/19 09:12:01;;;;;;;7.07;6.50;;;6.30;99.90;;;;;;5070175;28;20755;-73
2024/03/19 09:14:28;;;;;;;7.47;6.40;;;6.30;99.90;;;;;;5070221;28;20281;-73
2024/03/19 09:16:57;;;;;;;7.20;6.60;;;6.40;99.90;;;;;;5088997;28;20209;-73
2024/03/19 09:19:25;;;;;;;7.43;6.63;;;6.40;99.90;;;;;;5089867;28;20781;-73
2024/03/19 09:21:52;;;;;;;7.40;6.70;;;6.50;99.90;;;;;;5090346;28;20246;-73
2024/03/19 09:24:21;;;;;;;7.30;6.60;;;6.50;99.90;;;;;;5090356;28;20207;-73
2024/03/19 09:26:48;;;;;;;6.50;5.93;;;6.60;99.90;;;;;;5090301;28;20215;-73
2024/03/19 09:29:16;;;;;;;7.60;6.90;;;6.70;99.90;;;;;;5090256;28;20207;-73
2024/03/19 09:31:42;;;;;;;7.73;7.03;;;6.70;99.90;;;;;;5090130;28;20301;-73
2024/03/19 09:34:11;;;;;;;8.33;7.53;;;6.80;99.90;;;;;;5090077;28;20661;-73
2024/03/19 09:36:37;;;;;;;7.77;7.00;;;6.90;99.90;;;;;;5090295;28;20289;-73
2024/03/19 09:39:10;;;;;;;7.33;6.70;;;7.00;99.90;;;;;;5089859;28;20589;-73
2024/03/19 09:41:39;;;;;;;8.27;7.07;;;7.00;99.90;;;;;;5089834;28;20222;-73
2024/03/19 09:44:13;;;;;;;8.30;7.50;;;7.10;99.90;;;;;;5090246;28;20218;-73
2024/03/19 09:46:40;;;;;;;7.60;7.00;;;7.20;99.90;;;;;;5090357;28;20290;-74
2024/03/19 09:49:17;;;;;;;7.53;6.77;;;7.30;99.90;;;;;;5090142;28;20216;-73
2024/03/19 09:51:44;;;;;;;7.13;6.43;;;7.40;99.90;;;;;;5089855;28;20267;-73
2024/03/19 09:54:13;;;;;;;6.33;5.73;;;7.40;99.90;;;;;;5089963;28;20326;-73
2024/03/19 09:56:41;;;;;;;5.80;5.30;;;7.40;99.90;;;;;;5089366;28;20293;-73
2024/03/19 09:59:15;;;;;;;5.33;4.93;;;7.50;99.90;;;;;;5089552;28;20698;-73
2024/03/19 10:01:43;;;;;;;6.07;5.57;;;7.50;99.90;;;;;;5089456;28;20637;-74
2024/03/19 10:04:15;;;;;;;13.87;9.93;;;7.60;99.90;;;;;;5089225;28;20210;-74
2024/03/19 10:06:43;;;;;;;10.47;8.10;;;7.60;99.90;;;;;;5088785;28;20277;-74
2024/03/19 10:09:10;;;;;;;7.00;6.40;;;7.70;99.90;;;;;;5089711;28;20211;-74
2024/03/19 10:11:37;;;;;;;8.33;6.80;;;7.80;99.90;;;;;;5087593;28;20234;-74
2024/03/19 10:14:04;;;;;;;5.67;5.07;;;7.80;99.90;;;;;;5089085;28;20242;-73
2024/03/19 10:16:31;;;;;;;5.73;5.23;;;7.80;99.90;;;;;;5089233;28;20305;-73
2024/03/19 10:18:58;;;;;;;5.50;5.10;;;7.90;99.90;;;;;;5089304;28;20313;-74
2024/03/19 10:21:26;;;;;;;5.53;5.13;;;8.00;99.90;;;;;;5089144;28;20210;-73
2024/03/19 10:23:53;;;;;;;6.27;5.50;;;8.10;99.90;;;;;;5089424;28;20236;-73
2024/03/19 10:26:21;;;;;;;7.03;5.27;;;8.10;99.90;;;;;;5088574;28;20268;-74
2024/03/19 10:28:48;;;;;;;5.97;5.47;;;8.30;99.90;;;;;;5089287;28;20238;-74
2024/03/19 10:31:16;;;;;;;6.87;5.70;;;8.40;99.90;;;;;;5088864;28;20282;-73
2024/03/19 10:33:44;;;;;;;6.03;5.03;;;8.50;99.90;;;;;;5089338;28;20301;-73
2024/03/19 10:36:22;;;;;;;5.30;4.80;;;8.50;99.90;;;;;;5088545;28;20867;-73
2024/03/19 10:38:51;;;;;;;5.83;5.10;;;8.70;99.90;;;;;;5088886;28;20223;-73
2024/03/19 10:41:21;;;;;;;5.83;5.40;;;8.70;99.80;;;;;;5088687;28;20206;-73
2024/03/19 10:43:49;;;;;;;5.33;4.93;;;8.70;99.90;;;;;;5089310;28;20220;-73
2024/03/19 10:46:17;;;;;;;13.37;5.30;;;8.80;99.90;;;;;;5088665;28;20660;-73
2024/03/19 10:48:46;;;;;;;6.20;5.33;;;9.00;99.90;;;;;;5088557;28;20703;-74
2024/03/19 10:51:13;;;;;;;6.47;5.87;;;9.00;99.90;;;;;;5088634;28;20297;-73
2024/03/19 10:53:41;;;;;;;6.83;6.23;;;9.00;99.50;;;;;;5088422;28;20203;-74
2024/03/19 10:56:13;;;;;;;7.33;6.73;;;9.10;99.80;;;;;;5088538;28;20256;-74
2024/03/19 10:58:40;;;;;;;6.57;6.07;;;9.20;99.50;;;;;;5068215;28;20234;-74
2024/03/19 11:01:08;;;;;;;5.80;5.40;;;9.20;99.30;;;;;;5068455;28;20219;-73
2024/03/19 11:03:35;;;;;;;5.87;5.30;;;9.30;98.90;;;;;;5068238;28;20207;-73
2024/03/19 11:06:05;;;;;;;5.43;5.03;;;9.30;99.10;;;;;;5068018;28;20212;-73
2024/03/19 11:08:37;;;;;;;6.17;5.57;;;9.30;99.40;;;;;;5081134;28;20311;-73
2024/03/19 11:11:07;;;;;;;5.40;5.00;;;9.40;99.20;;;;;;5088255;28;20306;-71
2024/03/19 11:13:37;;;;;;;5.50;5.10;;;9.50;98.80;;;;;;5088045;28;20317;-71
2024/03/19 11:16:13;;;;;;;5.53;5.00;;;9.70;98.90;;;;;;5087567;28;20213;-71
2024/03/19 11:18:44;;;;;;;4.77;4.40;;;9.80;98.20;;;;;;5088372;28;20701;-72
2024/03/19 11:21:19;;;;;;;5.43;4.90;;;9.90;98.00;;;;;;5087621;28;20710;-71
2024/03/19 11:23:47;;;;;;;6.43;4.83;;;10.00;97.80;;;;;;5088239;28;20200;-72
2024/03/19 11:26:16;;;;;;;5.87;5.37;;;10.00;98.30;;;;;;5087266;28;20206;-72
2024/03/19 11:28:59;;;;;;;5.47;5.07;;;10.00;98.80;;;;;;5087764;28;20203;-72
2024/03/19 11:31:37;;;;;;;7.57;5.03;;;10.30;98.20;;;;;;5087554;28;20199;-72
2024/03/19 11:34:04;;;;;;;4.97;4.63;;;10.50;98.80;;;;;;5087944;28;20206;-73
2024/03/19 11:36:31;;;;;;;5.63;5.20;;;10.70;98.40;;;;;;5087474;28;20211;-72
2024/03/19 11:38:58;;;;;;;5.90;5.40;;;10.90;98.30;;;;;;5086957;28;20797;-72
2024/03/19 11:41:25;;;;;;;5.40;5.00;;;11.00;97.50;;;;;;5087170;28;20207;-73
2024/03/19 11:43:53;;;;;;;5.77;5.27;;;11.10;97.10;;;;;;5087125;28;20205;-72
2024/03/19 11:46:22;;;;;;;5.83;5.30;;;11.10;96.50;;;;;;5087175;28;20213;-72
2024/03/19 11:48:50;;;;;;;6.17;5.67;;;11.00;96.50;;;;;;5087190;28;20673;-72
2024/03/19 11:51:17;;;;;;;5.80;5.40;;;11.00;96.70;;;;;;5087104;28;20222;-72
2024/03/19 11:53:44;;;;;;;5.67;5.20;;;11.00;97.00;;;;;;5087193;28;20966;-72
2024/03/19 11:56:12;;;;;;;5.50;5.07;;;11.10;97.40;;;;;;5087158;28;20256;-72
2024/03/19 11:58:39;;;;;;;5.17;4.77;;;11.20;97.00;;;;;;5066795;28;20697;-72
2024/03/19 12:01:13;;;;;;;5.63;5.13;;;11.40;96.60;;;;;;5066998;28;20731;-73
2024/03/19 12:03:40;;;;;;;5.20;4.80;;;11.50;96.10;;;;;;5071452;28;20203;-72
2024/03/19 12:06:07;;;;;;;5.13;4.70;;;11.60;95.80;;;;;;5087338;28;20202;-72
2024/03/19 12:08:34;;;;;;;5.60;5.10;;;11.70;95.60;;;;;;5087110;28;20211;-72
2024/03/19 12:11:05;;;;;;;5.37;5.00;;;11.90;95.50;;;;;;5087346;28;20365;-72
2024/03/19 12:13:32;;;;;;;5.50;5.10;;;11.90;96.10;;;;;;5086860;28;20288;-72
2024/03/19 12:16:00;;;;;;;5.83;5.33;;;11.90;96.40;;;;;;5087054;28;20728;-72
2024/03/19 12:18:28;;;;;;;5.40;5.00;;;12.00;95.90;;;;;;5087464;28;20214;-72
2024/03/19 12:20:55;;;;;;;5.90;5.17;;;12.00;95.60;;;;;;5086560;28;20600;-72
2024/03/19 12:23:22;;;;;;;5.20;4.77;;;12.00;95.30;;;;;;5086926;28;20622;-72
2024/03/19 12:25:49;;;;;;;5.53;5.03;;;12.10;95.70;;;;;;5087129;28;20666;-71
2024/03/19 12:28:17;;;;;;;5.40;5.00;;;12.10;94.80;;;;;;5085970;28;20202;-72
2024/03/19 12:30:46;;;;;;;5.27;4.83;;;12.20;94.90;;;;;;5086732;28;20206;-72
2024/03/19 12:33:20;;;;;;;8.27;5.50;;;12.30;94.80;;;;;;5086951;28;20202;-72
2024/03/19 12:35:49;;;;;;;5.83;5.33;;;12.50;94.70;;;;;;5086621;28;20358;-72
2024/03/19 12:38:16;;;;;;;5.63;5.17;;;12.50;94.50;;;;;;5086945;28;21576;-72
2024/03/19 12:40:43;;;;;;;5.43;4.93;;;12.60;95.10;;;;;;5086218;28;20227;-72
2024/03/19 12:43:11;;;;;;;5.10;4.70;;;12.60;95.70;;;;;;5086706;28;20203;-72
2024/03/19 12:45:38;;;;;;;6.20;4.50;;;12.70;94.20;;;;;;5087206;28;20298;-72
2024/03/19 12:48:06;;;;;;;5.00;4.60;;;12.70;94.00;;;;;;5087042;28;20217;-72
2024/03/19 12:50:33;;;;;;;5.17;4.73;;;12.60;93.40;;;;;;5086944;28;20234;-72
2024/03/19 12:53:02;;;;;;;5.17;4.80;;;12.70;94.00;;;;;;5086654;28;20203;-72
2024/03/19 12:55:29;;;;;;;5.17;4.77;;;12.80;94.40;;;;;;5086111;28;20214;-72
2024/03/19 12:57:56;;;;;;;5.10;4.63;;;12.80;94.50;;;;;;5086336;28;20303;-72